Hauptseite
METAR-TAF:

METAR-TAF

Flughäfen :

Maiduguri, Nigeria

Breite: 11-51N, Länge: 013-05E, Höhe: 354 m

METAR: fehlend

Zeit: 02:46 (01:46 UTC)

Prognose

Neuester Wetterbericht von vor 8 Stunden und 46 Minuten, um 17:00 UTC
Gültige Prognose vom 06 um 18 UTC bis 07 um 24 UTC
Wind 8 kt aus Südwest
Sichtweite 10 km oder mehr
keine Wolken unter 1500 m und keine Kumulonimbus oder Gewitterwolken
Zeitweise
vom 07 um 13 UTC bis 07 um 19 UTC
Aufgelockert bewölkt in der Höhe von 1400 ft
Leicht bewölkt in der Höhe von 2400 ft, Kumulonimbus.
Gewitter

TAF: DNMA 061700Z 0618/0724 23008KT CAVOK TEMPO 0713/0719 TS SCT014 FEW024CB

Wetterbeobachtungen und Prognosen von mehr als 4000 Flughäfen (METAR und TAF Bericht).

Die verfügbaren Stationen werden durch gelbe und rote Markierungen auf der Karte dargestellt.

Führen Sie die Maus auf sie, um den Namen der Station zu sehen.

Darauf klicken, um die Beobachtung von Wetterbeobachtungen und Prognosen zu sehen.

Um die Karte zu ändern : klicken Sie auf den grünen Tasten mit einem schwarzen Kreuz Zum Vergrößern, auf den grünen Button mit einem Gedankenstrich zu verkleinern, oder auf die grünen Pfeile für benachbarte Karten.


METAR-TAF: